sensor_id;sensor_type;location;lat;lon;timestamp;pressure;altitude;pressure_sealevel;temperature;humidity
6413;BME280;3239;48.714;9.472;2023-04-21T00:02:00;98454.03;;;4.58;100.00
6413;BME280;3239;48.714;9.472;2023-04-21T00:04:26;98453.75;;;4.56;100.00
6413;BME280;3239;48.714;9.472;2023-04-21T00:06:53;98447.31;;;4.54;100.00
6413;BME280;3239;48.714;9.472;2023-04-21T00:09:20;98442.59;;;4.49;100.00
6413;BME280;3239;48.714;9.472;2023-04-21T00:11:46;98443.44;;;4.40;100.00
6413;BME280;3239;48.714;9.472;2023-04-21T00:14:12;98448.59;;;4.38;100.00
6413;BME280;3239;48.714;9.472;2023-04-21T00:16:38;98454.13;;;4.44;100.00
6413;BME280;3239;48.714;9.472;2023-04-21T00:19:03;98440.56;;;4.44;100.00
6413;BME280;3239;48.714;9.472;2023-04-21T00:21:32;98439.03;;;4.43;100.00
6413;BME280;3239;48.714;9.472;2023-04-21T00:23:58;98431.88;;;4.40;100.00
6413;BME280;3239;48.714;9.472;2023-04-21T00:26:24;98433.69;;;4.28;100.00
6413;BME280;3239;48.714;9.472;2023-04-21T00:28:50;98427.34;;;4.31;100.00
6413;BME280;3239;48.714;9.472;2023-04-21T00:31:16;98425.44;;;4.37;100.00
6413;BME280;3239;48.714;9.472;2023-04-21T00:33:42;98420.25;;;4.39;100.00
6413;BME280;3239;48.714;9.472;2023-04-21T00:36:08;98422.25;;;4.39;100.00
6413;BME280;3239;48.714;9.472;2023-04-21T00:38:33;98422.72;;;4.37;100.00
6413;BME280;3239;48.714;9.472;2023-04-21T00:40:59;98428.41;;;4.39;100.00
6413;BME280;3239;48.714;9.472;2023-04-21T00:43:25;98417.88;;;4.27;100.00
6413;BME280;3239;48.714;9.472;2023-04-21T00:45:50;98419.41;;;4.28;100.00
6413;BME280;3239;48.714;9.472;2023-04-21T00:48:16;98416.75;;;4.33;100.00
6413;BME280;3239;48.714;9.472;2023-04-21T00:50:43;98420.22;;;4.34;100.00
6413;BME280;3239;48.714;9.472;2023-04-21T00:53:10;98416.41;;;4.26;100.00
6413;BME280;3239;48.714;9.472;2023-04-21T00:55:37;98409.41;;;4.19;100.00
6413;BME280;3239;48.714;9.472;2023-04-21T00:58:03;98404.00;;;4.19;100.00
6413;BME280;3239;48.714;9.472;2023-04-21T01:00:29;98408.91;;;4.15;100.00
6413;BME280;3239;48.714;9.472;2023-04-21T01:02:55;98414.09;;;4.19;100.00
6413;BME280;3239;48.714;9.472;2023-04-21T01:05:22;98409.03;;;4.26;100.00
6413;BME280;3239;48.714;9.472;2023-04-21T01:07:48;98409.63;;;4.16;100.00
6413;BME280;3239;48.714;9.472;2023-04-21T01:10:14;98402.38;;;4.27;100.00
6413;BME280;3239;48.714;9.472;2023-04-21T01:12:44;98391.94;;;4.20;100.00
6413;BME280;3239;48.714;9.472;2023-04-21T01:15:12;98388.44;;;4.14;100.00
6413;BME280;3239;48.714;9.472;2023-04-21T01:17:38;98384.28;;;4.19;100.00
6413;BME280;3239;48.714;9.472;2023-04-21T01:20:11;98382.16;;;4.08;100.00
6413;BME280;3239;48.714;9.472;2023-04-21T01:22:39;98377.25;;;4.07;100.00
6413;BME280;3239;48.714;9.472;2023-04-21T01:25:07;98379.47;;;4.08;100.00
6413;BME280;3239;48.714;9.472;2023-04-21T01:27:33;98376.22;;;4.04;100.00
6413;BME280;3239;48.714;9.472;2023-04-21T01:29:59;98375.72;;;4.06;100.00
6413;BME280;3239;48.714;9.472;2023-04-21T01:32:27;98371.53;;;4.05;100.00
6413;BME280;3239;48.714;9.472;2023-04-21T01:34:55;98371.28;;;4.03;100.00
6413;BME280;3239;48.714;9.472;2023-04-21T01:37:29;98381.38;;;4.02;100.00
6413;BME280;3239;48.714;9.472;2023-04-21T01:39:58;98380.81;;;3.98;100.00
6413;BME280;3239;48.714;9.472;2023-04-21T01:42:27;98378.31;;;3.95;100.00
6413;BME280;3239;48.714;9.472;2023-04-21T01:44:54;98372.84;;;3.89;100.00
6413;BME280;3239;48.714;9.472;2023-04-21T01:47:21;98374.53;;;3.87;100.00
6413;BME280;3239;48.714;9.472;2023-04-21T01:49:47;98364.91;;;3.86;100.00
6413;BME280;3239;48.714;9.472;2023-04-21T01:52:13;98375.59;;;3.75;100.00
6413;BME280;3239;48.714;9.472;2023-04-21T01:54:39;98380.00;;;3.72;100.00
6413;BME280;3239;48.714;9.472;2023-04-21T01:57:05;98369.63;;;3.71;100.00
6413;BME280;3239;48.714;9.472;2023-04-21T01:59:31;98364.78;;;3.75;100.00
6413;BME280;3239;48.714;9.472;2023-04-21T02:01:57;98360.28;;;3.72;100.00
6413;BME280;3239;48.714;9.472;2023-04-21T02:04:22;98353.03;;;3.63;100.00
6413;BME280;3239;48.714;9.472;2023-04-21T02:06:48;98364.81;;;3.60;100.00
6413;BME280;3239;48.714;9.472;2023-04-21T02:09:14;98377.41;;;3.63;100.00
6413;BME280;3239;48.714;9.472;2023-04-21T02:11:40;98368.31;;;3.66;100.00
6413;BME280;3239;48.714;9.472;2023-04-21T02:14:06;98369.56;;;3.65;100.00
6413;BME280;3239;48.714;9.472;2023-04-21T02:16:32;98363.56;;;3.61;100.00
6413;BME280;3239;48.714;9.472;2023-04-21T02:18:57;98364.53;;;3.58;100.00
6413;BME280;3239;48.714;9.472;2023-04-21T02:21:24;98366.22;;;3.56;100.00
6413;BME280;3239;48.714;9.472;2023-04-21T02:23:51;98370.88;;;3.55;100.00
6413;BME280;3239;48.714;9.472;2023-04-21T02:26:17;98373.88;;;3.57;100.00
6413;BME280;3239;48.714;9.472;2023-04-21T02:28:44;98363.97;;;3.54;100.00
6413;BME280;3239;48.714;9.472;2023-04-21T02:31:10;98363.97;;;3.54;100.00
6413;BME280;3239;48.714;9.472;2023-04-21T02:33:35;98370.50;;;3.62;100.00
6413;BME280;3239;48.714;9.472;2023-04-21T02:36:02;98377.53;;;3.54;100.00
6413;BME280;3239;48.714;9.472;2023-04-21T02:38:27;98380.69;;;3.53;100.00
6413;BME280;3239;48.714;9.472;2023-04-21T02:40:53;98382.69;;;3.52;100.00
6413;BME280;3239;48.714;9.472;2023-04-21T02:43:19;98368.03;;;3.44;100.00
6413;BME280;3239;48.714;9.472;2023-04-21T02:45:45;98369.25;;;3.43;100.00
6413;BME280;3239;48.714;9.472;2023-04-21T02:48:10;98358.53;;;3.34;100.00
6413;BME280;3239;48.714;9.472;2023-04-21T02:50:36;98359.94;;;3.30;100.00
6413;BME280;3239;48.714;9.472;2023-04-21T02:53:02;98358.00;;;3.16;100.00
6413;BME280;3239;48.714;9.472;2023-04-21T02:55:28;98369.38;;;3.20;100.00
6413;BME280;3239;48.714;9.472;2023-04-21T02:57:54;98368.72;;;3.25;100.00
6413;BME280;3239;48.714;9.472;2023-04-21T03:00:20;98376.59;;;3.23;100.00
6413;BME280;3239;48.714;9.472;2023-04-21T03:02:46;98369.47;;;3.25;100.00
6413;BME280;3239;48.714;9.472;2023-04-21T03:05:11;98364.06;;;3.25;100.00
6413;BME280;3239;48.714;9.472;2023-04-21T03:07:37;98354.72;;;3.26;100.00
6413;BME280;3239;48.714;9.472;2023-04-21T03:10:05;98357.53;;;3.17;100.00
6413;BME280;3239;48.714;9.472;2023-04-21T03:12:31;98356.81;;;3.17;100.00
6413;BME280;3239;48.714;9.472;2023-04-21T03:14:57;98357.81;;;3.19;100.00
6413;BME280;3239;48.714;9.472;2023-04-21T03:17:23;98359.59;;;3.22;100.00
6413;BME280;3239;48.714;9.472;2023-04-21T03:19:49;98350.44;;;3.20;100.00
6413;BME280;3239;48.714;9.472;2023-04-21T03:22:15;98356.91;;;3.08;100.00
6413;BME280;3239;48.714;9.472;2023-04-21T03:24:41;98349.34;;;3.12;100.00
6413;BME280;3239;48.714;9.472;2023-04-21T03:27:07;98361.97;;;2.86;100.00
6413;BME280;3239;48.714;9.472;2023-04-21T03:29:32;98367.25;;;2.95;100.00
6413;BME280;3239;48.714;9.472;2023-04-21T03:31:59;98364.09;;;2.96;100.00
6413;BME280;3239;48.714;9.472;2023-04-21T03:34:25;98369.03;;;2.98;100.00
6413;BME280;3239;48.714;9.472;2023-04-21T03:36:51;98365.13;;;2.99;100.00
6413;BME280;3239;48.714;9.472;2023-04-21T03:39:17;98366.53;;;2.94;100.00
6413;BME280;3239;48.714;9.472;2023-04-21T03:41:42;98367.25;;;2.95;100.00
6413;BME280;3239;48.714;9.472;2023-04-21T03:44:08;98373.44;;;2.95;100.00
6413;BME280;3239;48.714;9.472;2023-04-21T03:46:34;98371.28;;;2.99;100.00
6413;BME280;3239;48.714;9.472;2023-04-21T03:48:59;98378.09;;;2.95;100.00
6413;BME280;3239;48.714;9.472;2023-04-21T03:51:26;98387.34;;;2.88;100.00
6413;BME280;3239;48.714;9.472;2023-04-21T03:53:52;98383.69;;;2.91;100.00
6413;BME280;3239;48.714;9.472;2023-04-21T03:56:17;98391.63;;;2.95;100.00
6413;BME280;3239;48.714;9.472;2023-04-21T03:58:43;98398.63;;;3.01;100.00
6413;BME280;3239;48.714;9.472;2023-04-21T04:01:09;98393.31;;;3.07;100.00
6413;BME280;3239;48.714;9.472;2023-04-21T04:03:34;98399.25;;;3.11;100.00
6413;BME280;3239;48.714;9.472;2023-04-21T04:06:00;98401.59;;;3.03;100.00
6413;BME280;3239;48.714;9.472;2023-04-21T04:08:29;98417.09;;;3.03;100.00
6413;BME280;3239;48.714;9.472;2023-04-21T04:10:55;98425.59;;;3.10;100.00
6413;BME280;3239;48.714;9.472;2023-04-21T04:13:21;98419.06;;;3.17;100.00
6413;BME280;3239;48.714;9.472;2023-04-21T04:15:49;98416.69;;;3.24;100.00
6413;BME280;3239;48.714;9.472;2023-04-21T04:18:14;98412.81;;;3.25;100.00
6413;BME280;3239;48.714;9.472;2023-04-21T04:20:40;98411.47;;;3.21;100.00
6413;BME280;3239;48.714;9.472;2023-04-21T04:23:06;98417.84;;;3.03;100.00
6413;BME280;3239;48.714;9.472;2023-04-21T04:25:31;98420.28;;;3.01;100.00
6413;BME280;3239;48.714;9.472;2023-04-21T04:27:57;98412.72;;;3.05;100.00
6413;BME280;3239;48.714;9.472;2023-04-21T04:30:24;98414.84;;;3.16;100.00
6413;BME280;3239;48.714;9.472;2023-04-21T04:32:52;98414.84;;;3.16;100.00
6413;BME280;3239;48.714;9.472;2023-04-21T04:35:18;98418.59;;;3.04;100.00
6413;BME280;3239;48.714;9.472;2023-04-21T04:37:44;98409.91;;;3.00;100.00
6413;BME280;3239;48.714;9.472;2023-04-21T04:40:10;98414.59;;;2.99;100.00
6413;BME280;3239;48.714;9.472;2023-04-21T04:42:40;98418.09;;;2.76;100.00
6413;BME280;3239;48.714;9.472;2023-04-21T04:45:07;98428.47;;;2.78;100.00
6413;BME280;3239;48.714;9.472;2023-04-21T04:47:34;98430.34;;;2.72;100.00
6413;BME280;3239;48.714;9.472;2023-04-21T04:50:00;98431.16;;;2.63;100.00
6413;BME280;3239;48.714;9.472;2023-04-21T04:52:25;98429.50;;;2.80;100.00
6413;BME280;3239;48.714;9.472;2023-04-21T04:54:51;98426.91;;;2.86;100.00
6413;BME280;3239;48.714;9.472;2023-04-21T04:57:17;98423.16;;;2.83;100.00
6413;BME280;3239;48.714;9.472;2023-04-21T04:59:43;98428.94;;;2.76;100.00
6413;BME280;3239;48.714;9.472;2023-04-21T05:02:08;98437.81;;;2.91;100.00
6413;BME280;3239;48.714;9.472;2023-04-21T05:04:35;98436.97;;;3.00;100.00
6413;BME280;3239;48.714;9.472;2023-04-21T05:07:01;98437.34;;;3.07;100.00
6413;BME280;3239;48.714;9.472;2023-04-21T05:09:26;98429.78;;;3.11;100.00
6413;BME280;3239;48.714;9.472;2023-04-21T05:11:52;98442.78;;;3.22;100.00
6413;BME280;3239;48.714;9.472;2023-04-21T05:14:18;98444.81;;;3.27;100.00
6413;BME280;3239;48.714;9.472;2023-04-21T05:16:44;98440.44;;;3.15;100.00
6413;BME280;3239;48.714;9.472;2023-04-21T05:19:10;98436.41;;;3.25;100.00
6413;BME280;3239;48.714;9.472;2023-04-21T05:21:35;98450.41;;;3.38;100.00
6413;BME280;3239;48.714;9.472;2023-04-21T05:24:01;98458.06;;;3.25;100.00
6413;BME280;3239;48.714;9.472;2023-04-21T05:26:28;98468.63;;;3.37;100.00
6413;BME280;3239;48.714;9.472;2023-04-21T05:28:55;98465.53;;;3.30;100.00
6413;BME280;3239;48.714;9.472;2023-04-21T05:31:22;98472.44;;;3.31;100.00
6413;BME280;3239;48.714;9.472;2023-04-21T05:33:48;98479.06;;;3.30;100.00
6413;BME280;3239;48.714;9.472;2023-04-21T05:36:14;98484.97;;;3.28;100.00
6413;BME280;3239;48.714;9.472;2023-04-21T05:38:40;98493.56;;;3.41;100.00
6413;BME280;3239;48.714;9.472;2023-04-21T05:41:06;98499.41;;;3.54;100.00
6413;BME280;3239;48.714;9.472;2023-04-21T05:43:33;98488.50;;;3.63;100.00
6413;BME280;3239;48.714;9.472;2023-04-21T05:46:00;98471.28;;;3.66;100.00
6413;BME280;3239;48.714;9.472;2023-04-21T05:48:26;98469.06;;;3.65;100.00
6413;BME280;3239;48.714;9.472;2023-04-21T05:50:54;98465.94;;;3.72;100.00
6413;BME280;3239;48.714;9.472;2023-04-21T05:53:20;98445.50;;;3.71;100.00
6413;BME280;3239;48.714;9.472;2023-04-21T05:55:48;98451.53;;;3.80;100.00
6413;BME280;3239;48.714;9.472;2023-04-21T05:58:14;98431.56;;;3.78;100.00
6413;BME280;3239;48.714;9.472;2023-04-21T06:00:39;98437.88;;;3.89;100.00
6413;BME280;3239;48.714;9.472;2023-04-21T06:03:05;98430.22;;;3.88;100.00
6413;BME280;3239;48.714;9.472;2023-04-21T06:05:31;98431.03;;;3.94;100.00
6413;BME280;3239;48.714;9.472;2023-04-21T06:07:57;98428.53;;;3.90;100.00
6413;BME280;3239;48.714;9.472;2023-04-21T06:10:24;98421.72;;;3.80;100.00
6413;BME280;3239;48.714;9.472;2023-04-21T06:12:50;98426.28;;;3.89;100.00
6413;BME280;3239;48.714;9.472;2023-04-21T06:15:16;98425.44;;;4.17;100.00
6413;BME280;3239;48.714;9.472;2023-04-21T06:17:41;98432.47;;;4.29;100.00
6413;BME280;3239;48.714;9.472;2023-04-21T06:20:08;98439.13;;;4.28;100.00
6413;BME280;3239;48.714;9.472;2023-04-21T06:22:34;98428.19;;;4.43;100.00
6413;BME280;3239;48.714;9.472;2023-04-21T06:24:59;98430.03;;;4.51;100.00
6413;BME280;3239;48.714;9.472;2023-04-21T06:27:25;98426.81;;;4.53;100.00
6413;BME280;3239;48.714;9.472;2023-04-21T06:29:54;98417.88;;;4.47;100.00
6413;BME280;3239;48.714;9.472;2023-04-21T06:32:20;98421.72;;;4.60;100.00
6413;BME280;3239;48.714;9.472;2023-04-21T06:34:46;98418.22;;;4.80;100.00
6413;BME280;3239;48.714;9.472;2023-04-21T06:37:12;98425.75;;;4.90;100.00
6413;BME280;3239;48.714;9.472;2023-04-21T06:39:37;98425.19;;;4.86;100.00
6413;BME280;3239;48.714;9.472;2023-04-21T06:42:03;98437.84;;;4.89;100.00
6413;BME280;3239;48.714;9.472;2023-04-21T06:44:29;98437.09;;;4.69;100.00
6413;BME280;3239;48.714;9.472;2023-04-21T06:46:56;98460.19;;;5.04;100.00
6413;BME280;3239;48.714;9.472;2023-04-21T06:49:22;98457.22;;;5.33;100.00
6413;BME280;3239;48.714;9.472;2023-04-21T06:51:48;98455.63;;;5.47;100.00
6413;BME280;3239;48.714;9.472;2023-04-21T06:54:14;98449.31;;;5.61;100.00
6413;BME280;3239;48.714;9.472;2023-04-21T06:56:39;98444.34;;;5.96;100.00
6413;BME280;3239;48.714;9.472;2023-04-21T06:59:08;98429.75;;;5.88;100.00
6413;BME280;3239;48.714;9.472;2023-04-21T07:01:34;98430.75;;;5.90;100.00
6413;BME280;3239;48.714;9.472;2023-04-21T07:03:59;98426.69;;;5.44;100.00
6413;BME280;3239;48.714;9.472;2023-04-21T07:06:26;98420.13;;;5.56;100.00
6413;BME280;3239;48.714;9.472;2023-04-21T07:08:51;98417.34;;;5.81;100.00
6413;BME280;3239;48.714;9.472;2023-04-21T07:11:17;98402.06;;;5.89;100.00
6413;BME280;3239;48.714;9.472;2023-04-21T07:13:43;98406.94;;;6.27;100.00
6413;BME280;3239;48.714;9.472;2023-04-21T07:16:09;98397.00;;;6.19;100.00
6413;BME280;3239;48.714;9.472;2023-04-21T07:18:35;98388.34;;;6.15;100.00
6413;BME280;3239;48.714;9.472;2023-04-21T07:21:01;98377.66;;;6.06;100.00
6413;BME280;3239;48.714;9.472;2023-04-21T07:23:26;98369.97;;;5.99;100.00
6413;BME280;3239;48.714;9.472;2023-04-21T07:25:52;98369.44;;;5.95;100.00
6413;BME280;3239;48.714;9.472;2023-04-21T07:28:18;98370.00;;;6.10;100.00
6413;BME280;3239;48.714;9.472;2023-04-21T07:30:44;98367.84;;;6.30;100.00
6413;BME280;3239;48.714;9.472;2023-04-21T07:33:10;98349.78;;;6.22;100.00
6413;BME280;3239;48.714;9.472;2023-04-21T07:35:35;98356.78;;;6.61;100.00
6413;BME280;3239;48.714;9.472;2023-04-21T07:38:01;98353.38;;;6.88;100.00
6413;BME280;3239;48.714;9.472;2023-04-21T07:40:27;98342.47;;;6.88;100.00
6413;BME280;3239;48.714;9.472;2023-04-21T07:42:52;98345.19;;;7.16;100.00
6413;BME280;3239;48.714;9.472;2023-04-21T07:45:18;98342.44;;;7.54;100.00
6413;BME280;3239;48.714;9.472;2023-04-21T07:47:44;98335.44;;;7.70;100.00
6413;BME280;3239;48.714;9.472;2023-04-21T07:50:10;98320.28;;;7.85;100.00
6413;BME280;3239;48.714;9.472;2023-04-21T07:52:36;98297.81;;;7.57;100.00
6413;BME280;3239;48.714;9.472;2023-04-21T07:55:02;98274.81;;;7.42;100.00
6413;BME280;3239;48.714;9.472;2023-04-21T07:57:28;98261.13;;;7.53;100.00
6413;BME280;3239;48.714;9.472;2023-04-21T07:59:56;98249.38;;;7.80;100.00
6413;BME280;3239;48.714;9.472;2023-04-21T08:02:22;98233.31;;;8.17;100.00
6413;BME280;3239;48.714;9.472;2023-04-21T08:04:48;98220.34;;;8.93;100.00
6413;BME280;3239;48.714;9.472;2023-04-21T08:07:14;98191.53;;;8.62;100.00
6413;BME280;3239;48.714;9.472;2023-04-21T08:09:40;98160.50;;;8.89;100.00
6413;BME280;3239;48.714;9.472;2023-04-21T08:12:05;98145.31;;;9.73;100.00
6413;BME280;3239;48.714;9.472;2023-04-21T08:14:31;98106.00;;;10.52;100.00
6413;BME280;3239;48.714;9.472;2023-04-21T08:16:58;98049.97;;;10.79;100.00
6413;BME280;3239;48.714;9.472;2023-04-21T08:19:24;97999.19;;;11.12;100.00
6413;BME280;3239;48.714;9.472;2023-04-21T08:21:50;97963.81;;;11.01;100.00
6413;BME280;3239;48.714;9.472;2023-04-21T08:24:16;97940.50;;;10.61;100.00
6413;BME280;3239;48.714;9.472;2023-04-21T08:26:41;97936.84;;;10.92;100.00
6413;BME280;3239;48.714;9.472;2023-04-21T08:29:07;97914.84;;;11.38;100.00
6413;BME280;3239;48.714;9.472;2023-04-21T08:31:35;97918.53;;;12.45;100.00
6413;BME280;3239;48.714;9.472;2023-04-21T08:34:01;97889.69;;;12.67;100.00
6413;BME280;3239;48.714;9.472;2023-04-21T08:36:27;97879.31;;;12.88;100.00
6413;BME280;3239;48.714;9.472;2023-04-21T08:38:53;97863.22;;;12.06;100.00
6413;BME280;3239;48.714;9.472;2023-04-21T08:41:20;97852.38;;;11.72;100.00
6413;BME280;3239;48.714;9.472;2023-04-21T08:43:46;97844.72;;;12.06;100.00
6413;BME280;3239;48.714;9.472;2023-04-21T08:46:12;97839.78;;;13.13;100.00
6413;BME280;3239;48.714;9.472;2023-04-21T08:48:39;97824.00;;;13.44;100.00
6413;BME280;3239;48.714;9.472;2023-04-21T08:51:08;97799.50;;;13.85;100.00
6413;BME280;3239;48.714;9.472;2023-04-21T08:53:35;97797.00;;;14.66;100.00
6413;BME280;3239;48.714;9.472;2023-04-21T08:56:02;97777.25;;;15.51;100.00
6413;BME280;3239;48.714;9.472;2023-04-21T08:58:28;97762.72;;;15.50;100.00
6413;BME280;3239;48.714;9.472;2023-04-21T09:00:54;97764.31;;;15.12;100.00
6413;BME280;3239;48.714;9.472;2023-04-21T09:03:26;97761.69;;;14.40;100.00
6413;BME280;3239;48.714;9.472;2023-04-21T09:06:07;97757.94;;;16.02;100.00
6413;BME280;3239;48.714;9.472;2023-04-21T09:08:37;97747.53;;;15.59;100.00
6413;BME280;3239;48.714;9.472;2023-04-21T09:11:04;97745.22;;;15.06;100.00
6413;BME280;3239;48.714;9.472;2023-04-21T09:13:32;97749.09;;;14.22;100.00
6413;BME280;3239;48.714;9.472;2023-04-21T09:16:00;97755.03;;;14.75;100.00
6413;BME280;3239;48.714;9.472;2023-04-21T09:18:28;97739.69;;;14.33;100.00
6413;BME280;3239;48.714;9.472;2023-04-21T09:21:14;97740.41;;;14.90;100.00
6413;BME280;3239;48.714;9.472;2023-04-21T09:23:41;97739.00;;;15.98;100.00
6413;BME280;3239;48.714;9.472;2023-04-21T09:26:08;97742.97;;;15.88;100.00
6413;BME280;3239;48.714;9.472;2023-04-21T09:28:34;97738.72;;;16.04;100.00
6413;BME280;3239;48.714;9.472;2023-04-21T09:31:00;97747.41;;;16.17;100.00
6413;BME280;3239;48.714;9.472;2023-04-21T09:33:26;97747.00;;;16.21;100.00
6413;BME280;3239;48.714;9.472;2023-04-21T09:35:52;97747.63;;;16.72;100.00
6413;BME280;3239;48.714;9.472;2023-04-21T09:38:21;97738.88;;;16.23;100.00
6413;BME280;3239;48.714;9.472;2023-04-21T09:40:58;97738.22;;;15.71;100.00
6413;BME280;3239;48.714;9.472;2023-04-21T09:43:24;97742.66;;;15.67;100.00
6413;BME280;3239;48.714;9.472;2023-04-21T09:45:50;97752.75;;;14.89;100.00
6413;BME280;3239;48.714;9.472;2023-04-21T09:48:17;97745.16;;;16.06;100.00
6413;BME280;3239;48.714;9.472;2023-04-21T09:50:45;97741.41;;;16.28;100.00
6413;BME280;3239;48.714;9.472;2023-04-21T09:53:15;97744.41;;;16.66;100.00
6413;BME280;3239;48.714;9.472;2023-04-21T09:55:42;97737.69;;;17.70;100.00
6413;BME280;3239;48.714;9.472;2023-04-21T09:58:12;97740.06;;;16.46;100.00
6413;BME280;3239;48.714;9.472;2023-04-21T10:00:41;97737.81;;;17.07;100.00
6413;BME280;3239;48.714;9.472;2023-04-21T10:03:08;97723.72;;;17.13;100.00
6413;BME280;3239;48.714;9.472;2023-04-21T10:05:37;97732.28;;;16.62;100.00
6413;BME280;3239;48.714;9.472;2023-04-21T10:08:03;97724.75;;;16.72;100.00
6413;BME280;3239;48.714;9.472;2023-04-21T10:10:32;97718.94;;;16.41;100.00
6413;BME280;3239;48.714;9.472;2023-04-21T10:13:00;97718.06;;;17.11;100.00
6413;BME280;3239;48.714;9.472;2023-04-21T10:16:02;97710.22;;;17.36;100.00
6413;BME280;3239;48.714;9.472;2023-04-21T10:18:29;97694.88;;;18.39;100.00
6413;BME280;3239;48.714;9.472;2023-04-21T10:23:37;97684.88;;;18.65;100.00
6413;BME280;3239;48.714;9.472;2023-04-21T10:26:16;97680.44;;;19.53;100.00
6413;BME280;3239;48.714;9.472;2023-04-21T10:28:43;97673.59;;;18.32;100.00
6413;BME280;3239;48.714;9.472;2023-04-21T10:33:42;97671.50;;;19.55;100.00
6413;BME280;3239;48.714;9.472;2023-04-21T10:36:28;97674.75;;;19.00;100.00
6413;BME280;3239;48.714;9.472;2023-04-21T10:39:01;97675.72;;;18.83;100.00
6413;BME280;3239;48.714;9.472;2023-04-21T10:41:34;97669.44;;;19.34;100.00
6413;BME280;3239;48.714;9.472;2023-04-21T10:46:45;97666.28;;;18.98;100.00
6413;BME280;3239;48.714;9.472;2023-04-21T10:49:20;97661.97;;;19.90;100.00
6413;BME280;3239;48.714;9.472;2023-04-21T10:57:19;97662.50;;;19.24;100.00
6413;BME280;3239;48.714;9.472;2023-04-21T10:59:46;97659.31;;;18.07;100.00
6413;BME280;3239;48.714;9.472;2023-04-21T11:02:16;97671.38;;;19.01;100.00
6413;BME280;3239;48.714;9.472;2023-04-21T11:04:43;97665.28;;;19.24;100.00
6413;BME280;3239;48.714;9.472;2023-04-21T11:07:17;97665.13;;;18.30;100.00
6413;BME280;3239;48.714;9.472;2023-04-21T11:09:46;97656.75;;;17.52;100.00
6413;BME280;3239;48.714;9.472;2023-04-21T11:12:17;97655.88;;;16.66;100.00
6413;BME280;3239;48.714;9.472;2023-04-21T11:14:45;97656.78;;;16.78;100.00
6413;BME280;3239;48.714;9.472;2023-04-21T11:17:19;97645.03;;;16.97;100.00
6413;BME280;3239;48.714;9.472;2023-04-21T11:19:50;97652.03;;;17.07;100.00
6413;BME280;3239;48.714;9.472;2023-04-21T11:22:17;97645.66;;;17.14;100.00
6413;BME280;3239;48.714;9.472;2023-04-21T11:24:45;97653.16;;;16.85;100.00
6413;BME280;3239;48.714;9.472;2023-04-21T11:27:11;97652.38;;;16.66;100.00
6413;BME280;3239;48.714;9.472;2023-04-21T11:29:38;97653.94;;;17.05;100.00
6413;BME280;3239;48.714;9.472;2023-04-21T11:32:08;97650.13;;;16.45;100.00
6413;BME280;3239;48.714;9.472;2023-04-21T11:34:38;97641.72;;;16.53;100.00
6413;BME280;3239;48.714;9.472;2023-04-21T11:37:07;97640.50;;;16.82;100.00
6413;BME280;3239;48.714;9.472;2023-04-21T11:39:33;97634.78;;;16.71;100.00
6413;BME280;3239;48.714;9.472;2023-04-21T11:41:59;97638.88;;;16.79;100.00
6413;BME280;3239;48.714;9.472;2023-04-21T11:44:40;97644.84;;;16.85;100.00
6413;BME280;3239;48.714;9.472;2023-04-21T11:47:18;97631.63;;;16.93;100.00
6413;BME280;3239;48.714;9.472;2023-04-21T11:49:56;97632.75;;;16.81;100.00
6413;BME280;3239;48.714;9.472;2023-04-21T11:52:34;97636.88;;;16.99;100.00
6413;BME280;3239;48.714;9.472;2023-04-21T11:55:10;97635.16;;;17.13;100.00
6413;BME280;3239;48.714;9.472;2023-04-21T11:57:38;97623.94;;;17.20;100.00
6413;BME280;3239;48.714;9.472;2023-04-21T12:00:07;97619.13;;;17.11;100.00
6413;BME280;3239;48.714;9.472;2023-04-21T12:02:35;97618.53;;;17.22;100.00
6413;BME280;3239;48.714;9.472;2023-04-21T12:05:13;97627.09;;;16.88;100.00
6413;BME280;3239;48.714;9.472;2023-04-21T12:07:45;97619.44;;;17.72;100.00
6413;BME280;3239;48.714;9.472;2023-04-21T12:10:20;97623.47;;;17.90;100.00
6413;BME280;3239;48.714;9.472;2023-04-21T12:12:46;97622.19;;;17.82;100.00
6413;BME280;3239;48.714;9.472;2023-04-21T12:15:18;97621.19;;;17.58;100.00
6413;BME280;3239;48.714;9.472;2023-04-21T12:17:52;97624.41;;;17.74;100.00
6413;BME280;3239;48.714;9.472;2023-04-21T12:20:21;97617.47;;;17.94;100.00
6413;BME280;3239;48.714;9.472;2023-04-21T12:22:48;97613.19;;;18.21;100.00
6413;BME280;3239;48.714;9.472;2023-04-21T12:25:14;97609.97;;;17.47;100.00
6413;BME280;3239;48.714;9.472;2023-04-21T12:27:57;97610.84;;;17.49;100.00
6413;BME280;3239;48.714;9.472;2023-04-21T12:30:23;97609.78;;;17.83;100.00
6413;BME280;3239;48.714;9.472;2023-04-21T12:32:49;97607.59;;;18.31;100.00
6413;BME280;3239;48.714;9.472;2023-04-21T12:35:16;97607.69;;;18.02;100.00
6413;BME280;3239;48.714;9.472;2023-04-21T12:37:43;97592.59;;;17.75;100.00
6413;BME280;3239;48.714;9.472;2023-04-21T12:40:10;97591.41;;;17.78;100.00
6413;BME280;3239;48.714;9.472;2023-04-21T12:42:35;97586.31;;;17.74;100.00
6413;BME280;3239;48.714;9.472;2023-04-21T12:45:01;97588.63;;;17.87;100.00
6413;BME280;3239;48.714;9.472;2023-04-21T12:47:28;97578.09;;;17.95;100.00
6413;BME280;3239;48.714;9.472;2023-04-21T12:49:54;97572.47;;;17.74;100.00
6413;BME280;3239;48.714;9.472;2023-04-21T12:52:20;97565.81;;;18.08;100.00
6413;BME280;3239;48.714;9.472;2023-04-21T12:54:46;97584.34;;;18.05;100.00
6413;BME280;3239;48.714;9.472;2023-04-21T12:57:12;97576.94;;;18.38;100.00
6413;BME280;3239;48.714;9.472;2023-04-21T12:59:38;97572.72;;;18.37;100.00
6413;BME280;3239;48.714;9.472;2023-04-21T13:02:04;97564.47;;;18.49;100.00
6413;BME280;3239;48.714;9.472;2023-04-21T13:04:30;97561.06;;;18.20;100.00
6413;BME280;3239;48.714;9.472;2023-04-21T13:06:56;97562.88;;;18.46;100.00
6413;BME280;3239;48.714;9.472;2023-04-21T13:09:22;97561.53;;;18.56;100.00
6413;BME280;3239;48.714;9.472;2023-04-21T13:11:48;97564.41;;;18.58;100.00
6413;BME280;3239;48.714;9.472;2023-04-21T13:14:14;97565.19;;;18.49;100.00
6413;BME280;3239;48.714;9.472;2023-04-21T13:16:40;97569.88;;;18.77;100.00
6413;BME280;3239;48.714;9.472;2023-04-21T13:19:06;97563.06;;;18.69;100.00
6413;BME280;3239;48.714;9.472;2023-04-21T13:21:31;97560.59;;;19.05;100.00
6413;BME280;3239;48.714;9.472;2023-04-21T13:23:57;97557.34;;;18.67;100.00
6413;BME280;3239;48.714;9.472;2023-04-21T13:26:23;97548.84;;;18.74;100.00
6413;BME280;3239;48.714;9.472;2023-04-21T13:28:49;97552.94;;;19.15;100.00
6413;BME280;3239;48.714;9.472;2023-04-21T13:31:15;97535.81;;;18.98;100.00